createdAt,value
2019-03-29T00:00:11.949Z,79.28
2019-03-29T00:02:43.290Z,79.95
2019-03-29T00:05:14.829Z,79.44
2019-03-29T00:07:46.239Z,78.53
2019-03-29T00:10:17.513Z,79.65
2019-03-29T00:12:49.064Z,79.00
2019-03-29T00:15:20.345Z,79.43
2019-03-29T00:17:51.955Z,80.33
2019-03-29T00:20:23.573Z,81.09
2019-03-29T00:22:55.063Z,80.79
2019-03-29T00:25:26.861Z,81.59
2019-03-29T00:27:58.344Z,81.36
2019-03-29T00:30:29.526Z,81.07
2019-03-29T00:33:00.913Z,81.77
2019-03-29T00:35:32.422Z,81.46
2019-03-29T00:38:03.907Z,80.19
2019-03-29T00:40:35.569Z,79.68
2019-03-29T00:43:07.026Z,80.78
2019-03-29T00:45:38.494Z,80.44
2019-03-29T00:48:10.153Z,81.43
2019-03-29T00:50:41.783Z,81.98
2019-03-29T00:53:13.372Z,80.27
2019-03-29T00:55:44.666Z,79.98
2019-03-29T00:58:16.060Z,80.44
2019-03-29T01:00:47.488Z,82.42
2019-03-29T01:03:18.914Z,83.17
2019-03-29T01:05:50.333Z,83.75
2019-03-29T01:08:21.884Z,83.35
2019-03-29T01:10:53.265Z,83.56
2019-03-29T01:13:24.924Z,84.34
2019-03-29T01:15:56.479Z,84.23
2019-03-29T01:18:27.933Z,84.14
2019-03-29T01:20:59.296Z,83.97
2019-03-29T01:23:30.860Z,84.86
2019-03-29T01:26:02.419Z,83.83
2019-03-29T01:28:33.988Z,83.80
2019-03-29T01:31:05.440Z,84.28
2019-03-29T01:33:36.792Z,84.96
2019-03-29T01:36:08.271Z,83.57
2019-03-29T01:38:39.627Z,83.28
2019-03-29T01:41:10.937Z,84.79
2019-03-29T01:43:42.421Z,84.82
2019-03-29T01:46:13.886Z,84.61
2019-03-29T01:48:45.289Z,84.88
2019-03-29T01:51:16.691Z,84.66
2019-03-29T01:53:48.111Z,85.34
2019-03-29T01:56:19.545Z,85.44
2019-03-29T01:58:51.005Z,85.83
2019-03-29T02:01:22.376Z,85.57
2019-03-29T02:03:53.869Z,86.13
2019-03-29T02:06:25.192Z,86.68
2019-03-29T02:08:56.820Z,86.90
2019-03-29T02:11:28.352Z,87.12
2019-03-29T02:13:59.628Z,87.21
2019-03-29T02:16:30.996Z,87.63
2019-03-29T02:19:02.213Z,87.81
2019-03-29T02:21:33.543Z,87.31
2019-03-29T02:24:04.968Z,87.65
2019-03-29T02:26:36.139Z,87.40
2019-03-29T02:29:07.370Z,87.20
2019-03-29T02:31:42.075Z,86.92
2019-03-29T02:34:11.546Z,86.92
2019-03-29T02:36:42.824Z,86.75
2019-03-29T02:39:14.172Z,87.51
2019-03-29T02:41:46.601Z,86.74
2019-03-29T02:44:18.171Z,86.09
2019-03-29T02:46:49.443Z,86.98
2019-03-29T02:49:20.754Z,87.44
2019-03-29T02:51:51.981Z,87.52
2019-03-29T02:54:23.233Z,87.75
2019-03-29T02:56:54.607Z,87.55
2019-03-29T02:59:25.972Z,87.66
2019-03-29T03:01:57.314Z,87.83
2019-03-29T03:04:28.654Z,87.73
2019-03-29T03:06:59.957Z,88.40
2019-03-29T03:09:31.252Z,88.62
2019-03-29T03:12:02.423Z,88.80
2019-03-29T03:14:33.708Z,88.24
2019-03-29T03:17:05.009Z,88.90
2019-03-29T03:19:36.316Z,88.64
2019-03-29T03:22:07.633Z,88.73
2019-03-29T03:24:38.875Z,88.89
2019-03-29T03:27:10.177Z,88.74
2019-03-29T03:29:41.561Z,88.78
2019-03-29T03:32:12.768Z,89.47
2019-03-29T03:34:44.097Z,89.20
2019-03-29T03:37:15.400Z,89.21
2019-03-29T03:39:46.641Z,89.25
2019-03-29T03:42:17.896Z,88.98
2019-03-29T03:44:49.176Z,88.83
2019-03-29T03:47:20.488Z,88.92
2019-03-29T03:49:51.775Z,89.04
2019-03-29T03:52:23.036Z,89.16
2019-03-29T03:54:54.278Z,89.62
2019-03-29T03:57:26.540Z,89.28
2019-03-29T03:59:58.504Z,89.51
2019-03-29T04:02:29.650Z,89.48
2019-03-29T04:05:00.901Z,89.32
2019-03-29T04:07:32.135Z,89.65
2019-03-29T04:10:03.474Z,90.26
2019-03-29T04:12:34.643Z,90.02
2019-03-29T04:15:06.400Z,90.16
2019-03-29T04:17:37.684Z,90.23
2019-03-29T04:20:09.164Z,90.38
2019-03-29T04:22:40.440Z,89.72
2019-03-29T04:25:11.703Z,90.61
2019-03-29T04:27:43.000Z,90.38
2019-03-29T04:30:14.983Z,89.54
2019-03-29T04:32:46.254Z,89.64
2019-03-29T04:35:17.560Z,89.62
2019-03-29T04:37:48.939Z,89.68
2019-03-29T04:40:20.233Z,88.91
2019-03-29T04:42:51.454Z,89.65
2019-03-29T04:45:22.790Z,90.29
2019-03-29T04:47:54.042Z,90.86
2019-03-29T04:50:25.235Z,91.13
2019-03-29T04:52:56.537Z,90.49
2019-03-29T04:55:27.806Z,90.67
2019-03-29T04:57:59.069Z,90.74
2019-03-29T05:00:30.412Z,90.50
2019-03-29T05:03:01.677Z,90.57
2019-03-29T05:05:32.944Z,90.67
2019-03-29T05:08:04.220Z,90.49
2019-03-29T05:10:35.464Z,90.36
2019-03-29T05:13:06.712Z,90.13
2019-03-29T05:15:37.893Z,90.28
2019-03-29T05:18:09.144Z,90.50
2019-03-29T05:20:40.351Z,90.84
2019-03-29T05:23:11.664Z,90.71
2019-03-29T05:25:42.859Z,90.68
2019-03-29T05:28:13.958Z,90.32
2019-03-29T05:30:45.273Z,90.42
2019-03-29T05:33:16.642Z,90.41
2019-03-29T05:35:47.856Z,90.32
2019-03-29T05:38:19.119Z,90.16
2019-03-29T05:40:50.307Z,89.36
2019-03-29T05:43:21.594Z,89.17
2019-03-29T05:45:52.806Z,89.08
2019-03-29T05:48:24.013Z,88.61
2019-03-29T05:50:55.281Z,88.46
2019-03-29T05:53:26.683Z,88.40
2019-03-29T05:55:58.013Z,87.74
2019-03-29T05:58:29.289Z,87.96
2019-03-29T06:01:00.515Z,87.58
2019-03-29T06:03:31.686Z,87.14
2019-03-29T06:06:02.965Z,86.61
2019-03-29T06:08:34.134Z,86.46
2019-03-29T06:11:05.385Z,86.95
2019-03-29T06:13:36.642Z,86.75
2019-03-29T06:16:07.991Z,86.30
2019-03-29T06:18:39.153Z,86.69
2019-03-29T06:21:10.379Z,86.05
2019-03-29T06:23:41.577Z,86.36
2019-03-29T06:26:12.808Z,85.46
2019-03-29T06:28:44.114Z,85.01
2019-03-29T06:31:15.274Z,85.01
2019-03-29T06:33:46.463Z,84.67
2019-03-29T06:36:18.522Z,84.32
2019-03-29T06:38:50.816Z,84.27
2019-03-29T06:41:22.062Z,84.48
2019-03-29T06:43:53.336Z,83.46
2019-03-29T06:46:24.623Z,83.55
2019-03-29T06:48:55.924Z,83.02
2019-03-29T06:51:27.208Z,81.17
2019-03-29T06:53:58.402Z,80.67
2019-03-29T06:56:29.743Z,80.25
2019-03-29T06:59:00.874Z,79.55
2019-03-29T07:01:33.982Z,78.81
2019-03-29T07:04:05.284Z,77.21
2019-03-29T07:06:36.578Z,76.02
2019-03-29T07:09:08.517Z,75.81
2019-03-29T07:11:39.874Z,74.32
2019-03-29T07:14:11.273Z,73.44
2019-03-29T07:16:42.564Z,72.40
2019-03-29T07:19:13.709Z,69.68
2019-03-29T07:21:44.973Z,69.56
2019-03-29T07:24:16.155Z,69.81
2019-03-29T07:26:47.410Z,69.16
2019-03-29T07:29:18.498Z,69.08
2019-03-29T07:31:52.994Z,68.96
2019-03-29T07:34:22.830Z,67.83
2019-03-29T07:36:53.936Z,68.82
2019-03-29T07:39:25.214Z,67.25
2019-03-29T07:41:56.535Z,65.39
2019-03-29T07:44:27.784Z,64.31
2019-03-29T07:46:59.127Z,63.52
2019-03-29T07:49:30.463Z,62.73
2019-03-29T07:52:01.760Z,62.37
2019-03-29T07:54:33.009Z,59.91
2019-03-29T07:57:04.265Z,59.60
2019-03-29T07:59:35.558Z,61.25
2019-03-29T08:02:06.868Z,62.97
2019-03-29T08:04:38.168Z,64.52
2019-03-29T08:07:09.453Z,64.64
2019-03-29T08:09:40.680Z,63.47
2019-03-29T08:12:11.952Z,63.70
2019-03-29T08:14:43.278Z,63.41
2019-03-29T08:17:14.533Z,61.57
2019-03-29T08:19:46.242Z,60.80
2019-03-29T08:22:17.531Z,59.81
2019-03-29T08:24:48.750Z,61.62
2019-03-29T08:27:20.044Z,58.64
2019-03-29T08:29:51.375Z,57.39
2019-03-29T08:32:22.709Z,57.53
2019-03-29T08:34:53.996Z,56.13
2019-03-29T08:37:25.177Z,57.23
2019-03-29T08:39:56.730Z,55.80
2019-03-29T08:42:28.082Z,55.96
2019-03-29T08:44:59.318Z,53.91
2019-03-29T08:47:30.581Z,51.99
2019-03-29T08:50:01.862Z,50.57
2019-03-29T08:52:33.082Z,48.98
2019-03-29T08:55:04.909Z,46.31
2019-03-29T08:57:36.208Z,45.40
2019-03-29T09:00:08.846Z,45.54
2019-03-29T09:02:40.126Z,47.32
2019-03-29T09:05:11.495Z,48.33
2019-03-29T09:07:45.114Z,45.66
2019-03-29T09:10:26.007Z,46.33
2019-03-29T09:12:57.251Z,45.30
2019-03-29T09:15:28.609Z,44.55
2019-03-29T09:18:00.287Z,42.46
2019-03-29T09:20:34.275Z,41.84
2019-03-29T09:23:04.573Z,39.95
2019-03-29T09:25:36.233Z,39.82
2019-03-29T09:28:07.484Z,40.43
2019-03-29T09:30:38.765Z,40.28
2019-03-29T09:33:10.104Z,40.34
2019-03-29T09:35:42.973Z,40.11
2019-03-29T09:38:14.294Z,39.17
2019-03-29T09:40:57.440Z,38.46
2019-03-29T09:43:18.654Z,36.58
2019-03-29T09:45:49.891Z,36.59
2019-03-29T09:48:21.849Z,37.82
2019-03-29T09:50:53.091Z,36.33
2019-03-29T09:53:24.954Z,36.91
2019-03-29T09:55:56.195Z,36.28
2019-03-29T09:58:27.524Z,35.34
2019-03-29T10:00:58.782Z,34.58
2019-03-29T10:03:30.151Z,37.55
2019-03-29T10:06:02.117Z,37.32
2019-03-29T10:08:33.453Z,38.69
2019-03-29T10:11:04.754Z,37.46
2019-03-29T10:13:35.967Z,39.96
2019-03-29T10:16:07.216Z,40.24
2019-03-29T10:18:38.474Z,41.04
2019-03-29T10:21:09.760Z,38.48
2019-03-29T10:23:41.042Z,36.89
2019-03-29T10:26:12.306Z,36.18
2019-03-29T10:28:43.552Z,35.59
2019-03-29T10:31:14.810Z,35.76
2019-03-29T10:33:48.863Z,36.81
2019-03-29T10:36:18.854Z,36.82
2019-03-29T10:38:50.113Z,33.54
2019-03-29T10:41:22.556Z,30.84
2019-03-29T10:43:54.232Z,31.28
2019-03-29T10:46:26.023Z,32.80
2019-03-29T10:48:57.545Z,34.75
2019-03-29T10:51:28.802Z,36.51
2019-03-29T10:54:00.065Z,36.00
2019-03-29T10:56:34.300Z,36.10
2019-03-29T10:59:04.333Z,35.52
2019-03-29T11:01:35.445Z,34.22
2019-03-29T11:04:06.743Z,35.33
2019-03-29T11:06:37.999Z,35.32
2019-03-29T11:09:09.974Z,33.25
2019-03-29T11:11:41.123Z,32.49
2019-03-29T11:14:12.385Z,31.57
2019-03-29T11:16:43.786Z,31.25
2019-03-29T11:19:15.015Z,31.39
2019-03-29T11:21:46.309Z,31.07
2019-03-29T11:24:17.742Z,31.24
2019-03-29T11:26:49.064Z,31.32
2019-03-29T11:29:20.344Z,31.60
2019-03-29T11:31:52.933Z,31.47
2019-03-29T11:34:24.961Z,29.21
2019-03-29T11:36:56.147Z,29.24
2019-03-29T11:39:27.684Z,31.91
2019-03-29T11:41:59.156Z,32.11
2019-03-29T11:44:30.530Z,30.89
2019-03-29T11:47:01.813Z,31.16
2019-03-29T11:49:33.335Z,30.06
2019-03-29T11:52:04.721Z,29.16
2019-03-29T11:54:36.026Z,28.44
2019-03-29T11:57:07.381Z,27.18
2019-03-29T11:59:40.307Z,26.23
2019-03-29T12:02:11.652Z,27.15
2019-03-29T12:04:42.894Z,28.91
2019-03-29T12:07:14.225Z,29.26
2019-03-29T12:09:45.491Z,26.82
2019-03-29T12:12:17.514Z,26.39
2019-03-29T12:14:48.874Z,24.89
2019-03-29T12:17:20.095Z,26.25
2019-03-29T12:19:51.436Z,24.88
2019-03-29T12:22:22.721Z,25.61
2019-03-29T12:24:53.838Z,24.07
2019-03-29T12:27:25.046Z,23.11
2019-03-29T12:29:56.227Z,23.87
2019-03-29T12:32:27.484Z,24.78
2019-03-29T12:34:58.807Z,23.24
2019-03-29T12:37:30.093Z,23.07
2019-03-29T12:40:01.416Z,22.23
2019-03-29T12:42:32.520Z,22.49
2019-03-29T12:45:03.678Z,22.53
2019-03-29T12:47:35.006Z,24.42
2019-03-29T12:50:06.360Z,24.55
2019-03-29T12:52:37.635Z,22.52
2019-03-29T12:55:08.868Z,21.63
2019-03-29T12:57:40.089Z,20.81
2019-03-29T13:00:13.251Z,21.05
2019-03-29T13:02:44.567Z,20.32
2019-03-29T13:05:15.786Z,21.31
2019-03-29T13:07:53.158Z,21.59
2019-03-29T13:10:23.383Z,22.65
2019-03-29T13:12:54.649Z,22.42
2019-03-29T13:15:26.061Z,22.52
2019-03-29T13:17:57.306Z,23.09
2019-03-29T13:20:28.501Z,24.14
2019-03-29T13:22:59.754Z,24.74
2019-03-29T13:25:30.916Z,24.91
2019-03-29T13:28:02.201Z,26.48
2019-03-29T13:30:33.453Z,28.01
2019-03-29T13:33:04.799Z,29.66
2019-03-29T13:35:35.993Z,29.23
2019-03-29T13:38:07.239Z,30.31
2019-03-29T13:40:39.778Z,30.97
2019-03-29T13:43:10.987Z,31.17
2019-03-29T13:45:42.272Z,32.66
2019-03-29T13:48:13.586Z,33.34
2019-03-29T13:50:44.861Z,33.67
2019-03-29T13:53:16.090Z,33.76
2019-03-29T13:55:47.276Z,34.46
2019-03-29T13:58:18.552Z,34.82
2019-03-29T14:00:49.744Z,35.36
2019-03-29T14:03:21.008Z,34.73
2019-03-29T14:05:52.218Z,34.85
2019-03-29T14:08:23.523Z,35.29
2019-03-29T14:10:54.883Z,34.70
2019-03-29T14:13:26.144Z,35.27
2019-03-29T14:15:57.433Z,34.74
2019-03-29T14:18:28.703Z,34.42
2019-03-29T14:21:00.022Z,34.98
2019-03-29T14:23:31.359Z,34.80
2019-03-29T14:26:02.531Z,34.90
2019-03-29T14:28:33.658Z,34.09
2019-03-29T14:31:04.949Z,32.83
2019-03-29T14:33:36.241Z,34.63
2019-03-29T14:36:07.498Z,34.01
2019-03-29T14:38:38.800Z,33.57
2019-03-29T14:41:10.027Z,32.92
2019-03-29T14:43:41.337Z,32.57
2019-03-29T14:46:12.567Z,30.88
2019-03-29T14:48:43.836Z,29.47
2019-03-29T14:51:15.046Z,29.29
2019-03-29T14:53:46.192Z,28.29
2019-03-29T14:56:17.379Z,27.71
2019-03-29T14:58:48.630Z,27.99
2019-03-29T15:01:19.888Z,28.02
2019-03-29T15:03:51.143Z,30.35
2019-03-29T15:06:22.262Z,31.04
2019-03-29T15:08:53.648Z,32.48
2019-03-29T15:11:24.952Z,33.97
2019-03-29T15:13:56.166Z,34.89
2019-03-29T15:16:27.427Z,35.67
2019-03-29T15:18:58.696Z,36.36
2019-03-29T15:21:30.023Z,36.83
2019-03-29T15:24:01.232Z,37.48
2019-03-29T15:26:32.415Z,38.09
2019-03-29T15:29:03.680Z,38.30
2019-03-29T15:31:35.482Z,37.68
2019-03-29T15:34:06.636Z,38.55
2019-03-29T15:36:37.971Z,38.33
2019-03-29T15:39:09.603Z,38.56
2019-03-29T15:41:40.850Z,39.03
2019-03-29T15:44:12.139Z,39.49
2019-03-29T15:46:43.419Z,39.25
2019-03-29T15:49:14.653Z,39.13
2019-03-29T15:51:45.918Z,39.11
2019-03-29T15:54:17.223Z,39.05
2019-03-29T15:56:48.519Z,39.18
2019-03-29T15:59:19.765Z,38.82
2019-03-29T16:01:51.067Z,38.74
2019-03-29T16:04:22.387Z,38.50
2019-03-29T16:06:53.680Z,39.05
2019-03-29T16:09:24.930Z,38.79
2019-03-29T16:11:56.150Z,39.31
2019-03-29T16:14:27.423Z,39.71
2019-03-29T16:16:58.609Z,40.12
2019-03-29T16:19:29.810Z,41.37
2019-03-29T16:22:01.043Z,41.96
2019-03-29T16:24:32.411Z,42.81
2019-03-29T16:27:03.655Z,42.74
2019-03-29T16:29:34.834Z,42.63
2019-03-29T16:32:06.134Z,43.42
2019-03-29T16:34:37.448Z,43.49
2019-03-29T16:37:08.697Z,42.03
2019-03-29T16:39:40.001Z,41.08
2019-03-29T16:42:11.118Z,41.33
2019-03-29T16:44:42.446Z,41.64
2019-03-29T16:47:13.774Z,42.47
2019-03-29T16:49:44.962Z,43.16
2019-03-29T16:52:16.288Z,43.38
2019-03-29T16:54:47.474Z,43.84
2019-03-29T16:57:18.785Z,43.48
2019-03-29T16:59:50.023Z,43.78
2019-03-29T17:02:21.383Z,44.05
2019-03-29T17:04:52.708Z,44.16
2019-03-29T17:07:24.106Z,44.23
2019-03-29T17:09:55.341Z,44.42
2019-03-29T17:12:26.540Z,44.29
2019-03-29T17:14:57.765Z,44.39
2019-03-29T17:17:29.027Z,44.73
2019-03-29T17:20:00.493Z,44.62
2019-03-29T17:22:31.825Z,45.16
2019-03-29T17:25:03.190Z,45.11
2019-03-29T17:27:34.342Z,45.65
2019-03-29T17:30:07.531Z,45.96
2019-03-29T17:32:38.713Z,46.17
2019-03-29T17:35:10.077Z,46.29
2019-03-29T17:37:41.341Z,46.82
2019-03-29T17:40:13.267Z,47.66
2019-03-29T17:42:44.484Z,47.30
2019-03-29T17:45:15.748Z,47.10
2019-03-29T17:47:47.023Z,48.40
2019-03-29T17:50:18.168Z,48.04
2019-03-29T17:52:49.418Z,47.69
2019-03-29T17:55:20.631Z,48.02
2019-03-29T17:57:51.862Z,48.89
2019-03-29T18:00:24.770Z,49.26
2019-03-29T18:02:56.077Z,49.37
2019-03-29T18:05:27.370Z,49.42
2019-03-29T18:07:58.624Z,49.82
2019-03-29T18:10:29.995Z,50.14
2019-03-29T18:13:01.356Z,50.79
2019-03-29T18:15:32.681Z,51.13
2019-03-29T18:18:03.901Z,51.58
2019-03-29T18:20:35.156Z,51.81
2019-03-29T18:23:06.521Z,51.56
2019-03-29T18:25:37.831Z,51.64
2019-03-29T18:28:09.180Z,51.29
2019-03-29T18:30:42.885Z,51.30
2019-03-29T18:33:14.236Z,51.56
2019-03-29T18:35:45.460Z,50.89
2019-03-29T18:38:16.715Z,51.45
2019-03-29T18:40:49.194Z,52.00
2019-03-29T18:43:20.355Z,51.69
2019-03-29T18:45:51.616Z,51.55
2019-03-29T18:48:23.027Z,52.76
2019-03-29T18:50:54.253Z,52.95
2019-03-29T18:53:25.616Z,53.84
2019-03-29T18:55:56.957Z,54.24
2019-03-29T18:58:28.314Z,54.09
2019-03-29T19:00:59.492Z,54.18
2019-03-29T19:03:30.900Z,54.08
2019-03-29T19:06:02.197Z,54.66
2019-03-29T19:08:33.449Z,54.97
2019-03-29T19:11:05.034Z,55.09
2019-03-29T19:13:36.416Z,55.12
2019-03-29T19:16:07.571Z,55.19
2019-03-29T19:18:38.869Z,55.07
2019-03-29T19:21:10.187Z,55.72
2019-03-29T19:23:41.508Z,55.53
2019-03-29T19:26:12.704Z,55.70
2019-03-29T19:28:43.976Z,56.06
2019-03-29T19:31:15.316Z,56.58
2019-03-29T19:33:46.572Z,56.71
2019-03-29T19:36:17.873Z,57.39
2019-03-29T19:38:49.198Z,57.65
2019-03-29T19:41:20.448Z,58.83
2019-03-29T19:43:51.741Z,59.21
2019-03-29T19:46:22.991Z,59.92
2019-03-29T19:48:54.377Z,59.86
2019-03-29T19:51:25.528Z,59.51
2019-03-29T19:54:07.247Z,60.25
2019-03-29T19:56:29.919Z,60.95
2019-03-29T19:59:01.127Z,61.34
2019-03-29T20:01:32.626Z,61.25
2019-03-29T20:04:03.934Z,62.12
2019-03-29T20:06:35.227Z,62.03
2019-03-29T20:09:09.053Z,62.55
2019-03-29T20:11:40.167Z,62.99
2019-03-29T20:14:11.374Z,63.02
2019-03-29T20:16:42.568Z,63.00
2019-03-29T20:19:13.897Z,63.82
2019-03-29T20:21:45.236Z,63.67
2019-03-29T20:24:16.483Z,64.24
2019-03-29T20:26:47.792Z,64.42
2019-03-29T20:29:18.987Z,64.60
2019-03-29T20:31:50.833Z,64.89
2019-03-29T20:34:23.171Z,65.28
2019-03-29T20:36:54.436Z,65.81
2019-03-29T20:39:25.907Z,65.61
2019-03-29T20:41:57.031Z,65.36
2019-03-29T20:44:28.204Z,64.79
2019-03-29T20:46:59.527Z,65.27
2019-03-29T20:49:30.744Z,65.56
2019-03-29T20:52:02.061Z,66.34
2019-03-29T20:54:33.331Z,67.36
2019-03-29T20:57:04.597Z,67.71
2019-03-29T20:59:35.791Z,68.24
2019-03-29T21:02:08.761Z,68.48
2019-03-29T21:04:40.046Z,68.15
2019-03-29T21:07:11.307Z,68.47
2019-03-29T21:09:42.561Z,69.07
2019-03-29T21:12:13.908Z,68.20
2019-03-29T21:14:45.165Z,67.32
2019-03-29T21:17:16.456Z,65.94
2019-03-29T21:19:47.751Z,65.97
2019-03-29T21:22:18.960Z,65.61
2019-03-29T21:24:50.221Z,65.88
2019-03-29T21:27:21.570Z,66.33
2019-03-29T21:29:52.927Z,66.13
2019-03-29T21:32:24.215Z,66.56
2019-03-29T21:34:55.378Z,66.49
2019-03-29T21:37:26.565Z,67.57
2019-03-29T21:39:57.868Z,67.10
2019-03-29T21:42:29.119Z,66.93
2019-03-29T21:45:00.344Z,66.56
2019-03-29T21:47:31.610Z,67.01
2019-03-29T21:50:02.904Z,69.40
2019-03-29T21:52:34.227Z,68.00
2019-03-29T21:55:06.528Z,68.02
2019-03-29T21:57:37.785Z,67.24
2019-03-29T22:00:11.038Z,67.55
2019-03-29T22:02:42.194Z,67.57
2019-03-29T22:05:13.585Z,67.51
2019-03-29T22:07:44.947Z,67.21
2019-03-29T22:10:16.362Z,66.69
2019-03-29T22:12:47.606Z,66.73
2019-03-29T22:15:18.908Z,66.48
2019-03-29T22:17:50.169Z,66.40
2019-03-29T22:20:21.279Z,66.47
2019-03-29T22:22:52.594Z,67.14
2019-03-29T22:25:23.877Z,67.20
2019-03-29T22:27:55.091Z,67.28
2019-03-29T22:30:26.386Z,68.18
2019-03-29T22:32:57.847Z,68.67
2019-03-29T22:35:29.050Z,68.43
2019-03-29T22:38:00.363Z,68.49
2019-03-29T22:40:31.560Z,68.44
2019-03-29T22:43:02.854Z,69.21
2019-03-29T22:45:34.058Z,69.50
2019-03-29T22:48:05.350Z,69.58
2019-03-29T22:50:36.523Z,68.68
2019-03-29T22:53:07.774Z,68.61
2019-03-29T22:55:38.940Z,67.78
2019-03-29T22:58:10.093Z,68.75
2019-03-29T23:00:46.472Z,69.60
2019-03-29T23:03:18.280Z,69.53
2019-03-29T23:05:49.500Z,69.50
2019-03-29T23:08:20.716Z,69.51
2019-03-29T23:10:51.960Z,69.37
2019-03-29T23:13:23.037Z,69.41
2019-03-29T23:15:54.306Z,69.79
2019-03-29T23:18:25.601Z,70.05
2019-03-29T23:20:56.851Z,69.93
2019-03-29T23:23:28.064Z,69.99
2019-03-29T23:25:59.386Z,71.44
2019-03-29T23:28:30.631Z,71.59
2019-03-29T23:31:05.395Z,71.83
2019-03-29T23:33:34.918Z,71.02
2019-03-29T23:36:06.134Z,71.55
2019-03-29T23:38:37.403Z,71.21
2019-03-29T23:41:08.616Z,70.97
2019-03-29T23:43:39.843Z,70.51
2019-03-29T23:46:11.061Z,70.46
2019-03-29T23:48:42.360Z,70.33
2019-03-29T23:51:13.476Z,70.74
2019-03-29T23:53:44.709Z,71.86
2019-03-29T23:56:16.085Z,70.83
2019-03-29T23:58:47.247Z,71.72
